Time;durP1;ratioP1;P1;durP2;ratioP2;P2;SDS_P1;SDS_P2;PMS_P1;PMS_P2;Temp;Humidity;BMP_temperature;BMP_pressure;BME280_temperature;BME280_humidity;BME280_pressure;Samples;Min_cycle;Max_cycle;Signal;HPM_P1;HPM_P2
2021/08/05 00:01:50;;;;;;;5.50;2.83;;;23.10;73.00;;;;;;5135854;27;20027;-73
2021/08/05 00:04:15;;;;;;;7.22;2.80;;;23.10;72.90;;;;;;5135588;27;20023;-73
2021/08/05 00:06:41;;;;;;;8.02;2.90;;;23.00;73.00;;;;;;5135585;27;20492;-74
2021/08/05 00:09:07;;;;;;;8.73;3.17;;;23.00;73.30;;;;;;5134811;27;20091;-73
2021/08/05 00:11:33;;;;;;;5.50;3.05;;;22.90;73.70;;;;;;5135865;27;20235;-74
2021/08/05 00:13:59;;;;;;;5.30;2.70;;;22.90;74.10;;;;;;5135368;27;20073;-74
2021/08/05 00:16:25;;;;;;;9.25;3.33;;;22.80;74.10;;;;;;5135485;27;20095;-72
2021/08/05 00:18:50;;;;;;;6.70;2.58;;;22.80;74.50;;;;;;5135527;27;20353;-73
2021/08/05 00:21:17;;;;;;;7.22;3.30;;;22.70;74.70;;;;;;5135541;27;20015;-74
2021/08/05 00:23:43;;;;;;;6.25;3.20;;;22.60;74.60;;;;;;5135983;27;20030;-72
2021/08/05 00:26:09;;;;;;;5.20;2.70;;;22.60;74.70;;;;;;5135024;27;20468;-74
2021/08/05 00:28:34;;;;;;;10.80;2.97;;;22.60;74.90;;;;;;5133825;27;20023;-74
2021/08/05 00:31:00;;;;;;;5.10;2.85;;;22.50;74.80;;;;;;5135347;27;20018;-74
2021/08/05 00:33:26;;;;;;;5.68;2.70;;;22.50;75.20;;;;;;5135301;27;20102;-74
2021/08/05 00:35:51;;;;;;;5.93;3.15;;;22.40;74.30;;;;;;5135315;27;20417;-74
2021/08/05 00:38:17;;;;;;;6.18;3.10;;;22.40;74.40;;;;;;5134985;27;20058;-73
2021/08/05 00:40:43;;;;;;;6.78;3.00;;;22.30;74.10;;;;;;5135291;27;20035;-73
2021/08/05 00:43:09;;;;;;;5.03;2.92;;;22.30;74.40;;;;;;5134928;27;20027;-72
2021/08/05 00:45:35;;;;;;;6.07;3.15;;;22.30;75.00;;;;;;5133430;27;20023;-74
2021/08/05 00:48:01;;;;;;;7.97;2.80;;;22.30;75.30;;;;;;5134837;27;20050;-74
2021/08/05 00:50:27;;;;;;;5.65;2.70;;;22.30;75.30;;;;;;5134715;27;20468;-72
2021/08/05 00:52:53;;;;;;;4.90;2.80;;;22.30;75.10;;;;;;5134765;27;20015;-73
2021/08/05 00:55:20;;;;;;;6.18;2.70;;;22.30;75.20;;;;;;5134687;27;20072;-73
2021/08/05 00:57:45;;;;;;;10.80;2.90;;;22.30;75.40;;;;;;5133718;27;20479;-72
2021/08/05 01:00:12;;;;;;;6.13;2.70;;;22.30;75.40;;;;;;5131998;27;20039;-73
2021/08/05 01:02:43;;;;;;;5.88;3.05;;;22.20;75.50;;;;;;5131590;27;20080;-73
2021/08/05 01:05:10;;;;;;;6.00;3.05;;;22.20;75.60;;;;;;5133299;27;20088;-72
2021/08/05 01:07:49;;;;;;;5.60;3.03;;;22.20;75.70;;;;;;5134640;27;20019;-73
2021/08/05 01:10:27;;;;;;;6.60;3.00;;;22.20;75.70;;;;;;5134391;27;20027;-74
2021/08/05 01:13:22;;;;;;;5.82;2.85;;;22.10;76.40;;;;;;5133917;27;20067;-74
2021/08/05 01:15:52;;;;;;;4.00;2.75;;;22.10;75.80;;;;;;5120157;27;20049;-73
2021/08/05 01:18:30;;;;;;;8.93;3.08;;;22.10;76.10;;;;;;5134412;27;20038;-72
2021/08/05 01:21:00;;;;;;;6.22;3.30;;;22.10;76.10;;;;;;5133803;27;20021;-73
2021/08/05 01:24:04;;;;;;;7.20;2.80;;;22.10;76.00;;;;;;5134374;27;20476;-72
2021/08/05 01:26:30;;;;;;;6.78;2.67;;;22.00;75.60;;;;;;5124452;27;20559;-73
2021/08/05 01:28:58;;;;;;;6.53;3.00;;;22.00;75.40;;;;;;5133867;27;20109;-73
2021/08/05 01:31:25;;;;;;;3.50;2.30;;;22.00;75.70;;;;;;5134062;27;20390;-74
2021/08/05 01:33:52;;;;;;;3.90;2.70;;;22.10;75.90;;;;;;5133977;27;20091;-73
2021/08/05 01:36:19;;;;;;;6.95;2.60;;;22.00;75.50;;;;;;5133235;27;20028;-73
2021/08/05 01:38:47;;;;;;;5.18;2.63;;;22.10;75.20;;;;;;5133734;27;20059;-73
2021/08/05 01:41:16;;;;;;;6.80;2.83;;;22.00;75.10;;;;;;5133495;27;20440;-73
2021/08/05 01:43:43;;;;;;;4.32;2.50;;;22.10;75.00;;;;;;5133711;27;20026;-73
2021/08/05 01:46:10;;;;;;;7.82;2.60;;;22.10;75.10;;;;;;5133746;27;20471;-73
2021/08/05 01:48:38;;;;;;;6.32;2.75;;;22.00;75.00;;;;;;5134083;27;20015;-74
2021/08/05 01:51:04;;;;;;;6.57;2.58;;;22.00;74.90;;;;;;5134125;27;20363;-73
2021/08/05 01:53:32;;;;;;;7.32;3.42;;;22.00;74.80;;;;;;5133629;27;20083;-73
2021/08/05 01:55:58;;;;;;;4.88;2.60;;;22.10;74.80;;;;;;5133748;27;20495;-73
2021/08/05 01:58:24;;;;;;;3.90;2.15;;;22.10;74.40;;;;;;5133698;28;20100;-74
2021/08/05 02:00:50;;;;;;;7.68;2.42;;;22.00;74.50;;;;;;5133762;28;20472;-72
2021/08/05 02:03:16;;;;;;;4.53;2.60;;;22.00;74.50;;;;;;5133427;28;20064;-74
2021/08/05 02:06:13;;;;;;;6.07;2.83;;;22.00;74.70;;;;;;5133264;28;20019;-74
2021/08/05 02:08:51;;;;;;;5.88;2.55;;;22.00;75.00;;;;;;5133808;28;20548;-73
2021/08/05 02:11:22;;;;;;;3.42;2.03;;;22.00;74.80;;;;;;5133721;28;20065;-74
2021/08/05 02:13:50;;;;;;;4.72;2.63;;;22.00;75.00;;;;;;5132181;28;20495;-73
2021/08/05 02:16:18;;;;;;;5.97;2.45;;;22.00;74.80;;;;;;5133596;28;20027;-73
2021/08/05 02:18:45;;;;;;;4.50;2.22;;;22.00;74.50;;;;;;5133687;28;20024;-73
2021/08/05 02:21:14;;;;;;;4.78;2.08;;;22.00;74.30;;;;;;5133389;28;20102;-73
2021/08/05 02:23:40;;;;;;;3.70;2.28;;;22.00;74.30;;;;;;5133494;28;20054;-74
2021/08/05 02:26:07;;;;;;;8.43;2.08;;;22.00;73.90;;;;;;5133555;28;20039;-73
2021/08/05 02:28:34;;;;;;;4.78;2.00;;;22.00;73.20;;;;;;5133559;28;20471;-73
2021/08/05 02:31:00;;;;;;;6.55;2.22;;;22.00;73.30;;;;;;5133305;27;20023;-74
2021/08/05 02:33:29;;;;;;;4.15;1.98;;;22.00;73.40;;;;;;5137394;27;20096;-73
2021/08/05 02:35:56;;;;;;;4.88;2.17;;;22.00;72.70;;;;;;5136017;27;20027;-73
2021/08/05 02:38:23;;;;;;;3.05;2.00;;;22.00;72.40;;;;;;5137508;27;20019;-73
2021/08/05 02:40:49;;;;;;;6.63;2.30;;;21.90;72.90;;;;;;5137373;27;20532;-74
2021/08/05 02:43:17;;;;;;;6.45;2.40;;;21.90;72.60;;;;;;5137179;27;20023;-74
2021/08/05 02:45:45;;;;;;;7.25;1.80;;;21.90;73.40;;;;;;5136889;27;20039;-73
2021/08/05 02:48:11;;;;;;;3.15;1.80;;;21.90;72.80;;;;;;5137458;27;20032;-74
2021/08/05 02:50:38;;;;;;;6.35;1.70;;;21.90;71.90;;;;;;5137357;27;20034;-74
2021/08/05 02:53:05;;;;;;;5.30;1.95;;;22.00;70.90;;;;;;5137111;27;20015;-74
2021/08/05 02:55:31;;;;;;;6.25;2.03;;;22.00;70.80;;;;;;5137069;27;20479;-73
2021/08/05 02:57:58;;;;;;;5.90;1.90;;;22.00;71.30;;;;;;5137066;27;20374;-74
2021/08/05 03:00:24;;;;;;;7.07;2.08;;;21.90;71.20;;;;;;5136868;27;20069;-74
2021/08/05 03:02:50;;;;;;;3.10;2.13;;;21.90;71.20;;;;;;5136973;27;20051;-74
2021/08/05 03:05:17;;;;;;;3.97;1.92;;;21.90;71.60;;;;;;5136685;27;20023;-74
2021/08/05 03:07:44;;;;;;;8.90;2.08;;;21.80;71.40;;;;;;5137160;27;20027;-74
2021/08/05 03:10:12;;;;;;;6.45;2.85;;;21.80;71.30;;;;;;5135659;27;20478;-73
2021/08/05 03:12:38;;;;;;;5.80;2.15;;;21.80;71.50;;;;;;5136711;27;20047;-74
2021/08/05 03:15:05;;;;;;;3.63;1.80;;;21.80;71.60;;;;;;5136656;27;20023;-74
2021/08/05 03:17:31;;;;;;;6.97;2.10;;;21.80;71.30;;;;;;5136464;27;20027;-74
2021/08/05 03:19:56;;;;;;;2.67;1.80;;;21.80;71.00;;;;;;5136889;27;20347;-74
2021/08/05 03:22:22;;;;;;;4.07;1.77;;;21.80;70.70;;;;;;5136831;27;20102;-74
2021/08/05 03:24:48;;;;;;;5.05;2.00;;;21.80;70.70;;;;;;5136514;27;20015;-74
2021/08/05 03:27:14;;;;;;;4.18;2.30;;;21.80;70.40;;;;;;5136558;27;20471;-73
2021/08/05 03:29:39;;;;;;;5.30;1.92;;;21.80;70.40;;;;;;5136279;27;20471;-74
2021/08/05 03:32:05;;;;;;;5.35;2.00;;;21.80;71.00;;;;;;5136583;27;20494;-73
2021/08/05 03:34:31;;;;;;;5.75;1.88;;;21.70;71.40;;;;;;5136043;27;20047;-72
2021/08/05 03:36:58;;;;;;;4.47;2.25;;;21.80;71.70;;;;;;5135687;27;20058;-72
2021/08/05 03:39:24;;;;;;;7.53;2.20;;;21.70;72.00;;;;;;5136307;27;20047;-74
2021/08/05 03:41:50;;;;;;;6.97;2.10;;;21.70;72.00;;;;;;5136195;27;20494;-72
2021/08/05 03:44:16;;;;;;;3.33;1.70;;;21.70;72.50;;;;;;5136088;27;20023;-73
2021/08/05 03:46:42;;;;;;;5.20;1.75;;;21.70;72.10;;;;;;5136129;27;20038;-73
2021/08/05 03:49:08;;;;;;;7.50;1.80;;;21.70;71.90;;;;;;5135695;27;20187;-73
2021/08/05 03:51:34;;;;;;;5.95;2.10;;;21.70;71.90;;;;;;5135850;27;20145;-73
2021/08/05 03:53:59;;;;;;;5.10;2.05;;;21.70;72.10;;;;;;5136145;27;20102;-74
2021/08/05 03:56:25;;;;;;;5.60;2.03;;;21.70;72.30;;;;;;5136131;27;20467;-73
2021/08/05 03:58:51;;;;;;;4.68;2.20;;;21.70;72.60;;;;;;5136162;27;20019;-73
2021/08/05 04:01:17;;;;;;;4.80;2.20;;;21.70;72.80;;;;;;5136063;27;20026;-73
2021/08/05 04:03:42;;;;;;;5.68;1.98;;;21.60;73.10;;;;;;5135495;27;20099;-74
2021/08/05 04:06:08;;;;;;;3.70;2.38;;;21.60;73.80;;;;;;5135502;27;20031;-72
2021/08/05 04:08:35;;;;;;;4.18;2.33;;;21.70;73.20;;;;;;5135603;27;20054;-74
2021/08/05 04:11:01;;;;;;;6.82;2.10;;;21.70;73.20;;;;;;5135523;27;20019;-73
2021/08/05 04:13:27;;;;;;;5.63;2.10;;;21.70;72.90;;;;;;5135551;27;20047;-73
2021/08/05 04:15:53;;;;;;;5.13;2.05;;;21.70;72.80;;;;;;5135592;27;20027;-73
2021/08/05 04:18:19;;;;;;;4.35;2.08;;;21.70;72.10;;;;;;5135555;27;20061;-73
2021/08/05 04:20:45;;;;;;;5.65;2.10;;;21.70;71.50;;;;;;5135402;27;20034;-74
2021/08/05 04:23:10;;;;;;;5.35;1.77;;;21.70;71.50;;;;;;5135696;27;20494;-75
2021/08/05 04:25:37;;;;;;;4.90;1.92;;;21.70;71.50;;;;;;5135263;27;20066;-74
2021/08/05 04:28:04;;;;;;;5.05;1.90;;;21.70;71.40;;;;;;5135065;27;20100;-75
2021/08/05 04:30:29;;;;;;;7.05;2.08;;;21.70;71.30;;;;;;5135634;27;20080;-75
2021/08/05 04:32:55;;;;;;;7.50;2.15;;;21.70;71.50;;;;;;5135121;27;20027;-73
2021/08/05 04:35:21;;;;;;;6.10;2.13;;;21.70;72.00;;;;;;5134877;27;20016;-75
2021/08/05 04:37:58;;;;;;;5.60;2.13;;;21.80;72.50;;;;;;5134996;27;20023;-72
2021/08/05 04:40:26;;;;;;;4.78;2.15;;;21.80;72.50;;;;;;5134747;27;20023;-74
2021/08/05 04:42:52;;;;;;;4.30;1.85;;;21.80;72.60;;;;;;5134811;27;20490;-73
2021/08/05 04:45:18;;;;;;;4.00;1.80;;;21.80;72.90;;;;;;5134621;27;20023;-72
2021/08/05 04:47:50;;;;;;;8.60;2.03;;;21.80;73.00;;;;;;5134879;27;20063;-73
2021/08/05 04:50:16;;;;;;;;;;;21.80;73.00;;;;;;5135626;27;20022;-75
2021/08/05 04:52:42;;;;;;;5.78;2.03;;;21.80;73.10;;;;;;5134693;27;19908;-74
2021/08/05 04:55:08;;;;;;;5.47;2.13;;;21.80;73.50;;;;;;5133908;27;20023;-73
2021/08/05 04:57:33;;;;;;;5.10;2.13;;;21.80;73.80;;;;;;5133356;27;20019;-74
2021/08/05 04:59:59;;;;;;;4.35;2.22;;;21.80;73.30;;;;;;5134700;27;20131;-72
2021/08/05 05:02:25;;;;;;;9.93;2.40;;;21.80;73.00;;;;;;5134226;27;20027;-74
2021/08/05 05:04:50;;;;;;;6.55;2.80;;;21.80;73.60;;;;;;5134356;27;20051;-73
2021/08/05 05:07:16;;;;;;;7.72;3.08;;;21.80;73.70;;;;;;5134061;27;20467;-74
2021/08/05 05:09:42;;;;;;;8.38;2.40;;;21.80;74.10;;;;;;5134201;27;20463;-73
2021/08/05 05:12:07;;;;;;;7.50;2.70;;;21.80;74.10;;;;;;5134158;27;20451;-72
2021/08/05 05:14:33;;;;;;;6.07;2.38;;;21.80;74.30;;;;;;5133841;27;20014;-73
2021/08/05 05:17:00;;;;;;;9.05;2.40;;;21.70;74.30;;;;;;5134368;27;20468;-74
2021/08/05 05:19:26;;;;;;;5.03;2.20;;;21.80;74.70;;;;;;5134194;27;20020;-73
2021/08/05 05:21:51;;;;;;;5.28;2.35;;;21.80;74.00;;;;;;5134453;27;20027;-73
2021/08/05 05:24:17;;;;;;;3.50;2.15;;;21.80;74.10;;;;;;5134080;27;20015;-74
2021/08/05 05:26:42;;;;;;;5.22;2.38;;;21.80;73.80;;;;;;5133703;27;20035;-75
2021/08/05 05:29:08;;;;;;;8.27;3.08;;;21.70;73.80;;;;;;5134171;27;20528;-74
2021/08/05 05:31:34;;;;;;;7.95;2.30;;;21.70;74.00;;;;;;5134187;27;20035;-73
2021/08/05 05:33:59;;;;;;;5.88;2.40;;;21.70;74.20;;;;;;5134065;27;20479;-73
2021/08/05 05:36:25;;;;;;;5.45;2.42;;;21.70;74.50;;;;;;5134035;27;20486;-73
2021/08/05 05:38:51;;;;;;;8.90;2.42;;;21.70;74.60;;;;;;5133243;27;20084;-74
2021/08/05 05:41:16;;;;;;;5.97;2.63;;;21.70;74.60;;;;;;5133493;27;20026;-73
2021/08/05 05:43:42;;;;;;;7.03;2.47;;;21.70;74.90;;;;;;5133161;27;20023;-73
2021/08/05 05:46:08;;;;;;;6.40;2.50;;;21.70;75.20;;;;;;5133793;27;20115;-73
2021/08/05 05:48:34;;;;;;;7.72;2.88;;;21.70;75.40;;;;;;5133239;27;20110;-73
2021/08/05 05:51:00;;;;;;;7.55;2.78;;;21.70;75.50;;;;;;5132394;27;20055;-73
2021/08/05 05:53:26;;;;;;;8.15;2.60;;;21.70;75.40;;;;;;5133744;27;20027;-73
2021/08/05 05:55:52;;;;;;;5.50;2.60;;;21.70;75.40;;;;;;5132224;27;20528;-73
2021/08/05 05:58:18;;;;;;;5.93;2.38;;;21.70;75.50;;;;;;5132099;27;20023;-74
2021/08/05 06:00:43;;;;;;;4.85;2.22;;;21.80;75.70;;;;;;5132904;28;20154;-73
2021/08/05 06:03:09;;;;;;;7.95;2.40;;;21.80;75.40;;;;;;5133644;28;20106;-73
2021/08/05 06:05:35;;;;;;;8.20;2.20;;;21.80;75.30;;;;;;5133695;27;20066;-73
2021/08/05 06:08:01;;;;;;;7.57;2.70;;;21.80;75.20;;;;;;5137159;27;20146;-74
2021/08/05 06:10:27;;;;;;;6.43;2.63;;;21.80;75.00;;;;;;5137640;27;20030;-73
2021/08/05 06:12:52;;;;;;;4.72;2.22;;;21.80;75.00;;;;;;5136562;27;20096;-73
2021/08/05 06:15:19;;;;;;;7.55;2.58;;;21.70;74.90;;;;;;5136487;27;20421;-73
2021/08/05 06:17:45;;;;;;;5.20;2.40;;;21.80;74.70;;;;;;5136368;27;20019;-73
2021/08/05 06:20:13;;;;;;;6.63;2.22;;;21.80;74.30;;;;;;5136607;27;20023;-71
2021/08/05 06:22:40;;;;;;;6.85;2.60;;;21.80;74.40;;;;;;5136719;27;20020;-71
2021/08/05 06:25:07;;;;;;;6.57;2.40;;;21.80;74.70;;;;;;5135772;27;20087;-72
2021/08/05 06:27:33;;;;;;;3.22;2.30;;;21.90;74.70;;;;;;5134149;27;20079;-71
2021/08/05 06:29:58;;;;;;;5.78;2.50;;;21.90;74.90;;;;;;5136570;27;20464;-71
2021/08/05 06:32:25;;;;;;;7.88;2.53;;;22.00;75.10;;;;;;5137536;27;20023;-72
2021/08/05 06:34:50;;;;;;;7.93;2.83;;;22.00;75.30;;;;;;5136213;27;20659;-72
2021/08/05 06:37:16;;;;;;;9.48;3.05;;;22.10;75.20;;;;;;5137411;27;20023;-71
2021/08/05 06:39:42;;;;;;;8.50;2.60;;;22.10;74.90;;;;;;5137558;27;20019;-71
2021/08/05 06:42:07;;;;;;;9.10;2.90;;;22.10;74.90;;;;;;5135648;27;20471;-72
2021/08/05 06:44:36;;;;;;;9.95;2.92;;;22.10;75.00;;;;;;5117889;27;20055;-74
2021/08/05 06:47:03;;;;;;;12.48;2.70;;;22.10;75.20;;;;;;5114710;28;20106;-72
2021/08/05 06:49:29;;;;;;;9.63;2.60;;;22.10;75.30;;;;;;5114978;28;20063;-72
2021/08/05 06:51:55;;;;;;;6.22;2.60;;;22.00;75.50;;;;;;5115464;28;20100;-73
2021/08/05 06:54:20;;;;;;;7.35;2.88;;;22.00;75.70;;;;;;5116621;28;20152;-72
2021/08/05 06:56:46;;;;;;;8.77;2.83;;;22.10;76.00;;;;;;5115832;28;20468;-72
2021/08/05 06:59:13;;;;;;;7.80;2.88;;;22.00;76.00;;;;;;5115772;28;20036;-72
2021/08/05 07:01:39;;;;;;;9.40;2.95;;;22.00;76.20;;;;;;5116412;28;20099;-72
2021/08/05 07:04:04;;;;;;;8.68;3.10;;;22.00;76.30;;;;;;5116454;28;20067;-72
2021/08/05 07:06:30;;;;;;;5.60;2.88;;;22.00;76.50;;;;;;5116321;28;20028;-72
2021/08/05 07:08:56;;;;;;;12.77;3.70;;;22.10;76.70;;;;;;5116684;28;20028;-72
2021/08/05 07:11:21;;;;;;;8.18;2.55;;;22.10;76.80;;;;;;5116244;28;20051;-73
2021/08/05 07:13:47;;;;;;;7.47;2.90;;;22.10;77.00;;;;;;5116064;28;20067;-72
2021/08/05 07:16:13;;;;;;;9.85;2.72;;;22.20;77.20;;;;;;5116423;28;20552;-71
2021/08/05 07:18:39;;;;;;;9.23;2.72;;;22.20;77.10;;;;;;5116140;28;20379;-71
2021/08/05 07:21:04;;;;;;;14.07;2.72;;;22.20;77.20;;;;;;5116268;28;20506;-73
2021/08/05 07:23:31;;;;;;;7.68;2.80;;;22.30;77.10;;;;;;5116301;28;20077;-73
2021/08/05 07:25:57;;;;;;;8.35;3.25;;;22.30;77.30;;;;;;5115981;28;20032;-72
2021/08/05 07:28:22;;;;;;;9.30;3.35;;;22.40;77.40;;;;;;5116110;28;20019;-73
2021/08/05 07:30:51;;;;;;;5.43;2.70;;;22.50;77.40;;;;;;5116147;28;20023;-71
2021/08/05 07:33:17;;;;;;;9.63;3.08;;;22.50;77.10;;;;;;5116225;28;20081;-71
2021/08/05 07:35:43;;;;;;;8.10;3.08;;;22.60;77.10;;;;;;5115881;28;20511;-73
2021/08/05 07:38:09;;;;;;;7.38;3.80;;;22.60;76.30;;;;;;5115598;28;20055;-73
2021/08/05 07:40:36;;;;;;;10.15;3.10;;;22.70;76.40;;;;;;5115777;28;20046;-73
2021/08/05 07:43:02;;;;;;;5.22;2.70;;;22.80;76.60;;;;;;5115902;28;20035;-74
2021/08/05 07:45:28;;;;;;;9.52;3.17;;;22.80;76.80;;;;;;5115802;28;20084;-74
2021/08/05 07:47:53;;;;;;;12.43;3.25;;;22.90;76.80;;;;;;5115586;28;20493;-74
2021/08/05 07:50:19;;;;;;;13.63;3.45;;;22.90;76.50;;;;;;5115551;28;20016;-73
2021/08/05 07:52:44;;;;;;;12.45;2.97;;;23.10;76.30;;;;;;5115593;28;20027;-72
2021/08/05 07:55:11;;;;;;;10.20;2.85;;;23.10;76.20;;;;;;5115493;27;20022;-72
2021/08/05 07:57:37;;;;;;;5.88;2.75;;;23.10;76.40;;;;;;5115371;28;20114;-73
2021/08/05 08:00:05;;;;;;;6.05;2.28;;;23.10;76.00;;;;;;5115611;28;20049;-73
2021/08/05 08:02:31;;;;;;;6.50;2.28;;;23.00;75.60;;;;;;5115577;27;20544;-73
2021/08/05 08:04:57;;;;;;;7.85;2.15;;;23.00;74.90;;;;;;5115077;28;20023;-72
2021/08/05 08:07:22;;;;;;;8.02;2.67;;;22.90;75.10;;;;;;5115456;28;20027;-73
2021/08/05 08:09:48;;;;;;;5.25;2.00;;;22.80;75.30;;;;;;5115198;28;20020;-72
2021/08/05 08:12:14;;;;;;;5.43;2.00;;;22.80;75.30;;;;;;5115477;28;20404;-72
2021/08/05 08:14:40;;;;;;;5.60;2.00;;;22.80;75.30;;;;;;5114722;28;20024;-73
2021/08/05 08:17:06;;;;;;;4.97;1.90;;;22.70;75.20;;;;;;5113333;28;20027;-72
2021/08/05 08:19:32;;;;;;;5.93;1.90;;;22.70;75.50;;;;;;5112078;28;20032;-71
2021/08/05 08:22:00;;;;;;;6.75;2.13;;;22.70;75.50;;;;;;5112532;28;20020;-70
2021/08/05 08:24:27;;;;;;;1072.55;90.00;;;22.70;75.90;;;;;;5114308;28;20023;-69
2021/08/05 08:26:52;;;;;;;244.65;19.38;;;22.70;78.10;;;;;;5114801;28;20042;-75
2021/08/05 08:29:19;;;;;;;18.25;4.57;;;;;;;;;;5112589;28;20020;-67
2021/08/05 08:31:48;;;;;;;6.60;2.72;;;;;;;;;;5114483;28;20472;-67
2021/08/05 08:34:14;;;;;;;7.13;2.70;;;;;;;;;;5114511;27;20040;-68
2021/08/05 08:36:42;;;;;;;6.35;2.72;;;;;;;;;;5114910;28;20058;-67
2021/08/05 08:39:08;;;;;;;6.55;2.80;;;;;;;;;;5114717;28;20058;-70
2021/08/05 08:41:36;;;;;;;7.85;2.65;;;;;;;;;;5114979;28;20024;-73
2021/08/05 08:44:02;;;;;;;4.68;2.70;;;;;;;;;;5112624;28;20051;-75
2021/08/05 08:46:33;;;;;;;6.68;2.75;;;;;;;;;;5112568;28;20081;-71
2021/08/05 08:49:00;;;;;;;5.25;2.70;;;;;;;;;;5112906;28;20023;-73
2021/08/05 08:51:27;;;;;;;3.58;2.50;;;;;;;;;;5114108;28;20028;-71
2021/08/05 08:53:54;;;;;;;5.22;2.83;;;;;;;;;;5113840;28;20059;-75
2021/08/05 08:56:23;;;;;;;4.32;2.47;;;;;;;;;;5114082;28;20020;-75
2021/08/05 08:58:50;;;;;;;7.75;2.83;;;;;;;;;;5114042;28;20027;-76
2021/08/05 09:01:16;;;;;;;3.38;2.10;;;;;;;;;;5112789;28;20027;-74
2021/08/05 09:03:42;;;;;;;3.65;1.90;;;;;;;;;;5114335;28;20024;-70
2021/08/05 09:06:08;;;;;;;2.75;2.10;;;;;;;;;;5114210;28;20118;-74
2021/08/05 09:08:37;;;;;;;5.30;2.30;;;;;;;;;;5113944;28;20019;-75
2021/08/05 09:11:03;;;;;;;3.00;1.70;;;;;;;;;;5113899;28;20475;-72
2021/08/05 09:13:29;;;;;;;4.70;1.70;;;;;;;;;;5114038;28;20407;-72
2021/08/05 09:15:56;;;;;;;4.22;1.75;;;;;;;;;;5113909;28;20024;-72
2021/08/05 09:18:25;;;;;;;2.28;1.33;;;;;;;;;;5114119;28;20356;-73
2021/08/05 09:21:11;;;;;;;5.10;1.10;;;;;;;;;;5113709;28;20043;-73
2021/08/05 09:23:50;;;;;;;1.98;1.10;;;;;;;;;;5113885;28;20468;-68
2021/08/05 09:26:22;;;;;;;4.75;1.20;;;;;;;;;;5113192;28;20036;-70
2021/08/05 09:29:08;;;;;;;2.00;1.42;;;;;;;;;;5113260;28;20103;-73
2021/08/05 09:31:35;;;;;;;1.92;1.05;;;;;;;;;;5112266;28;20463;-70
2021/08/05 09:34:02;;;;;;;7.97;1.20;;;;;;;;;;5113532;28;20020;-73
2021/08/05 09:36:28;;;;;;;3.83;1.30;;;;;;;;;;5113706;28;20024;-75
2021/08/05 09:38:54;;;;;;;4.72;1.30;;;;;;;;;;5113697;28;20012;-74
2021/08/05 09:41:20;;;;;;;2.03;1.10;;;;;;;;;;5113634;28;20047;-75
2021/08/05 09:43:46;;;;;;;2.85;1.35;;;;;;;;;;5113711;28;20030;-75
2021/08/05 09:46:13;;;;;;;1.83;1.08;;;;;;;;;;5111880;28;20032;-74
2021/08/05 09:48:45;;;;;;;2.38;1.20;;;;;;;;;;5110616;28;20054;-74
2021/08/05 09:51:16;;;;;;;1.77;1.35;;;;;;;;;;5110202;28;20035;-76
2021/08/05 09:54:00;;;;;;;3.80;1.58;;;;;;;;;;5113482;28;20054;-75
2021/08/05 09:56:27;;;;;;;2.85;0.90;;;;;;;;;;5113438;28;20162;-75
2021/08/05 09:59:03;;;;;;;2.03;1.17;;;;;;;;;;5113025;28;20024;-69
2021/08/05 10:01:29;;;;;;;1.98;1.30;;;;;;;;;;5112180;28;20027;-68
2021/08/05 10:03:55;;;;;;;3.65;1.48;;;;;;;;;;5110754;28;20111;-69
2021/08/05 10:06:21;;;;;;;3.35;1.30;;;;;;;;;;5109811;28;20047;-68
2021/08/05 10:08:47;;;;;;;2.80;1.20;;;;;;;;;;5111252;28;20484;-69
2021/08/05 10:11:13;;;;;;;2.72;1.10;;;;;;;;;;5111624;28;20047;-68
2021/08/05 10:13:41;;;;;;;3.15;1.02;;;;;;;;;;5111789;28;20043;-70
2021/08/05 10:16:09;;;;;;;1.50;1.00;;;;;;;;;;5111477;28;20023;-68
2021/08/05 10:18:35;;;;;;;2.08;0.90;;;;;;;;;;5112936;28;20376;-69
2021/08/05 10:21:04;;;;;;;5.55;1.02;;;;;;;;;;5113171;28;20027;-69
2021/08/05 10:23:30;;;;;;;2.95;0.90;;;;;;;;;;5112434;28;20027;-68
2021/08/05 10:25:57;;;;;;;1.58;0.93;;;;;;;;;;5112603;28;20042;-69
2021/08/05 10:28:24;;;;;;;1.65;0.88;;;;;;;;;;5112294;28;20468;-70
2021/08/05 10:30:52;;;;;;;1.52;0.77;;;;;;;;;;5112793;28;20020;-67
2021/08/05 10:33:18;;;;;;;1.10;0.70;;;;;;;;;;5112689;28;20110;-71
2021/08/05 10:35:48;;;;;;;2.35;1.02;;;;;;;;;;5111955;28;20466;-67
2021/08/05 10:38:15;;;;;;;2.17;0.90;;;;;;;;;;5111975;28;20016;-69
2021/08/05 10:40:41;;;;;;;3.10;1.00;;;;;;;;;;5111104;28;20024;-69
2021/08/05 10:43:07;;;;;;;1.52;0.90;;;;;;;;;;5112049;28;20531;-69
2021/08/05 10:45:33;;;;;;;0.80;0.80;;;;;;;;;;5110288;28;20028;-69
2021/08/05 10:48:01;;;;;;;3.30;1.30;;;;;;;;;;5110901;28;20024;-70
2021/08/05 10:50:28;;;;;;;2.58;0.90;;;;;;;;;;5110775;28;20107;-69
2021/08/05 10:52:55;;;;;;;1.88;1.08;;;;;;;;;;5109683;28;20037;-69
2021/08/05 10:55:22;;;;;;;3.00;1.48;;;;;;;;;;5113821;28;20051;-70
2021/08/05 10:58:08;;;;;;;2.33;1.40;;;;;;;;;;5114595;28;20027;-69
2021/08/05 11:00:52;;;;;;;2.72;1.48;;;;;;;;;;5116605;28;20028;-69
2021/08/05 11:03:35;;;;;;;4.15;1.58;;;;;;;;;;5116600;28;20026;-69
2021/08/05 11:06:05;;;;;;;1.30;1.10;;;;;;;;;;5115419;28;20395;-69
2021/08/05 11:08:31;;;;;;;2.78;1.40;;;;;;;;;;5116166;28;20095;-70
2021/08/05 11:11:16;;;;;;;2.17;1.30;;;;;;;;;;5115791;28;20027;-68
2021/08/05 11:13:42;;;;;;;3.35;1.30;;;;;;;;;;5115147;28;20079;-70
2021/08/05 11:16:08;;;;;;;3.35;1.38;;;;;;;;;;5115938;28;20055;-68
2021/08/05 11:18:34;;;;;;;1.60;1.08;;;;;;;;;;5115530;28;20026;-69
2021/08/05 11:21:00;;;;;;;2.40;1.20;;;;;;;;;;5115909;28;20073;-70
2021/08/05 11:23:35;;;;;;;1.00;0.90;;;;;;;;;;5115708;28;20027;-70
2021/08/05 11:26:08;;;;;;;2.13;1.00;;;;;;;;;;5115673;28;20641;-69
2021/08/05 11:28:44;;;;;;;2.00;0.90;;;;;;;;;;5115957;28;20027;-69
2021/08/05 11:31:11;;;;;;;3.72;0.90;;;;;;;;;;5116068;28;20529;-69
2021/08/05 11:33:41;;;;;;;2.33;1.00;;;;;;;;;;5116097;28;20024;-70
2021/08/05 11:36:22;;;;;;;1.50;0.80;;;;;;;;;;5115667;28;20085;-69
2021/08/05 11:39:07;;;;;;;2.45;0.75;;;;;;;;;;5115731;28;20016;-70
2021/08/05 11:41:43;;;;;;;3.28;0.85;;;;;;;;;;5115652;28;20035;-69
2021/08/05 11:44:29;;;;;;;1.35;0.52;;;;;;;;;;5115576;28;20027;-68
2021/08/05 11:47:14;;;;;;;0.85;0.50;;;;;;;;;;5115569;28;20036;-71
2021/08/05 11:49:47;;;;;;;4.53;0.57;;;;;;;;;;5115664;28;20024;-70
2021/08/05 11:52:14;;;;;;;1.15;0.50;;;;;;;;;;5115641;28;20028;-68
2021/08/05 11:54:45;;;;;;;2.72;0.52;;;;;;;;;;5114558;28;20022;-69
2021/08/05 11:57:14;;;;;;;1.55;0.63;;;;;;;;;;5114086;28;20403;-72
2021/08/05 11:59:41;;;;;;;0.30;0.30;;;;;;;;;;5115024;28;20030;-68
2021/08/05 12:02:08;;;;;;;0.50;0.40;;;;;;;;;;5114839;28;20455;-68
2021/08/05 12:04:34;;;;;;;1.23;0.50;;;;;;;;;;5113842;28;20015;-70
2021/08/05 12:07:16;;;;;;;0.68;0.30;;;;;;;;;;5115125;28;20487;-70
2021/08/05 12:09:42;;;;;;;1.30;0.68;;;;;;;;;;5114544;28;20028;-70
2021/08/05 12:12:09;;;;;;;1.20;0.40;;;;;;;;;;5115058;28;20036;-70
2021/08/05 12:14:35;;;;;;;0.93;0.50;;;;;;;;;;5114962;27;20059;-71
2021/08/05 12:17:01;;;;;;;0.32;0.32;;;;;;;;;;5115026;28;20383;-71
2021/08/05 12:19:29;;;;;;;1.65;0.30;;;;;;;;;;5114895;28;20028;-71
2021/08/05 12:21:56;;;;;;;0.63;0.50;;;;;;;;;;5115021;28;20015;-70
2021/08/05 12:24:24;;;;;;;1.58;0.40;;;;;;;;;;5115068;28;20095;-71
2021/08/05 12:26:57;;;;;;;1.20;0.43;;;;;;;;;;5114851;28;20089;-71
2021/08/05 12:29:23;;;;;;;1.30;0.88;;;;;;;;;;5113542;28;20023;-70
2021/08/05 12:31:49;;;;;;;1.35;0.43;;;;;;;;;;5115188;28;20384;-70
2021/08/05 12:34:15;;;;;;;1.10;0.50;;;;;;;;;;5114595;28;20045;-70
2021/08/05 12:36:41;;;;;;;4.47;0.65;;;;;;;;;;5114942;28;20020;-69
2021/08/05 12:39:08;;;;;;;3.10;0.38;;;;;;;;;;5114449;28;20054;-70
2021/08/05 12:41:53;;;;;;;0.70;0.50;;;;;;;;;;5114777;27;20036;-72
2021/08/05 12:44:20;;;;;;;2.22;0.38;;;;;;;;;;5114483;28;20027;-71
2021/08/05 12:46:47;;;;;;;0.40;0.40;;;;;;;;;;5113712;28;20039;-71
2021/08/05 12:49:13;;;;;;;0.45;0.30;;;;;;;;;;5114197;28;20050;-71
2021/08/05 12:51:39;;;;;;;2.50;0.60;;;;;;;;;;5113554;28;20055;-71
2021/08/05 12:54:22;;;;;;;7.57;0.80;;;;;;;;;;5113738;28;20027;-68
2021/08/05 12:56:52;;;;;;;1.10;0.50;;;;;;;;;;5110871;28;20348;-70
2021/08/05 12:59:19;;;;;;;0.60;0.50;;;;;;;;;;5111316;28;20039;-69
2021/08/05 13:02:02;;;;;;;2.15;0.50;;;;;;;;;;5112403;28;20027;-71
2021/08/05 13:04:29;;;;;;;0.65;0.43;;;;;;;;;;5113731;28;20069;-70
2021/08/05 13:06:57;;;;;;;2.08;0.40;;;;;;;;;;5113687;28;20468;-71
2021/08/05 13:09:24;;;;;;;1.75;0.50;;;;;;;;;;5113184;28;20363;-70
2021/08/05 13:11:50;;;;;;;1.60;0.50;;;;;;;;;;5113924;28;20111;-69
2021/08/05 13:14:46;;;;;;;1.73;0.50;;;;;;;;;;5113928;28;20035;-69
2021/08/05 13:17:14;;;;;;;5.60;0.60;;;;;;;;;;5104704;28;20035;-69
2021/08/05 13:20:00;;;;;;;2.60;0.40;;;;;;;;;;5113566;28;20103;-68
2021/08/05 13:22:36;;;;;;;1.23;0.40;;;;;;;;;;5113955;28;20030;-68
2021/08/05 13:25:03;;;;;;;2.83;0.40;;;;;;;;;;5113514;28;20087;-69
2021/08/05 13:27:33;;;;;;;0.45;0.40;;;;;;;;;;5112460;28;20032;-70
2021/08/05 13:29:59;;;;;;;2.53;0.60;;;;;;;;;;5113611;28;20016;-69